Time;durP1;ratioP1;P1;durP2;ratioP2;P2;SDS_P1;SDS_P2;PMS_P1;PMS_P2;Temp;Humidity;BMP_temperature;BMP_pressure;BME280_temperature;BME280_humidity;BME280_pressure;Samples;Min_cycle;Max_cycle;Signal;HPM_P1;HPM_P2
2022/11/27 00:01:22;;;;;;;5.50;2.52;;;;;;;3.14;71.04;101504.20;1877721;74;20911;-92
2022/11/27 00:03:48;;;;;;;5.65;2.77;;;;;;;3.11;71.28;101509.06;1886118;74;21099;-91
2022/11/27 00:06:18;;;;;;;5.37;2.25;;;;;;;3.09;71.37;101511.30;1874810;74;21523;-91
2022/11/27 00:08:47;;;;;;;6.58;2.35;;;;;;;3.11;71.28;101514.27;1875890;74;21045;-91
2022/11/27 00:11:21;;;;;;;5.50;2.30;;;;;;;3.19;71.09;101514.47;1877909;74;21077;-91
2022/11/27 00:13:48;;;;;;;6.42;2.58;;;;;;;3.21;71.00;101516.56;1880359;74;21430;-91
2022/11/27 00:16:16;;;;;;;6.90;2.83;;;;;;;3.19;71.09;101520.52;1870898;74;21183;-91
2022/11/27 00:18:42;;;;;;;5.78;2.45;;;;;;;3.15;71.13;101519.77;1886241;74;20968;-92
2022/11/27 00:21:27;;;;;;;;;;;;;;;;;;;;;
2022/11/27 00:23:52;;;;;;;6.75;2.70;;;;;;;3.05;71.38;101513.14;1873405;74;20979;-91
2022/11/27 00:26:19;;;;;;;7.33;2.80;;;;;;;3.12;71.32;101522.91;1886543;74;21096;-92
2022/11/27 00:28:47;;;;;;;6.08;2.83;;;;;;;3.16;71.17;101520.17;1872858;74;21139;-92
2022/11/27 00:31:20;;;;;;;6.50;2.20;;;;;;;3.20;70.93;101520.92;1867443;74;21108;-92
2022/11/27 00:33:46;;;;;;;18.73;3.47;;;;;;;3.15;71.15;101520.22;1872588;74;20931;-92
2022/11/27 00:36:14;;;;;;;7.12;3.08;;;;;;;3.17;71.30;101519.72;1847443;75;21504;-92
2022/11/27 00:38:41;;;;;;;5.55;2.37;;;;;;;3.19;71.21;101521.81;1874624;74;21443;-91
2022/11/27 00:41:09;;;;;;;5.33;2.20;;;;;;;3.19;71.07;101518.37;1864877;74;21190;-91
2022/11/27 00:43:36;;;;;;;5.95;1.67;;;;;;;3.19;70.58;101510.57;1888015;74;21050;-91
2022/11/27 00:46:03;;;;;;;6.05;2.37;;;;;;;3.25;70.29;101514.29;1887417;74;20970;-91
2022/11/27 00:48:31;;;;;;;5.83;2.17;;;;;;;3.28;70.22;101512.44;1884009;74;21128;-92
2022/11/27 00:51:03;;;;;;;6.53;2.65;;;;;;;3.27;70.20;101517.69;1874584;74;21081;-92
2022/11/27 00:53:30;;;;;;;5.45;2.10;;;;;;;3.23;70.06;101509.56;1853510;74;21732;-92
2022/11/27 00:55:57;;;;;;;4.60;1.90;;;;;;;3.19;70.22;101511.41;1887344;74;21492;-92
2022/11/27 01:01:06;;;;;;;4.22;1.47;;;;;;;3.24;69.96;101504.77;1867651;75;22617;-59
2022/11/27 01:03:32;;;;;;;5.78;2.10;;;;;;;3.25;69.95;101511.69;1841570;77;20977;-59
2022/11/27 01:06:05;;;;;;;4.72;1.80;;;;;;;3.23;70.05;101510.43;1840680;77;21183;-60
2022/11/27 01:08:32;;;;;;;5.75;1.98;;;;;;;3.22;69.89;101504.81;1845757;77;21014;-60
2022/11/27 01:11:00;;;;;;;6.45;2.27;;;;;;;3.20;69.71;101510.98;1833765;77;20999;-59
2022/11/27 01:13:30;;;;;;;6.33;2.20;;;;;;;3.18;69.66;101501.05;1847585;77;20978;-59
2022/11/27 01:16:00;;;;;;;4.40;1.80;;;;;;;3.22;69.54;101501.37;1838729;77;20993;-59
2022/11/27 01:18:27;;;;;;;5.45;1.82;;;;;;;3.21;69.51;101495.76;1845622;77;22190;-59
2022/11/27 01:20:54;;;;;;;4.95;1.87;;;;;;;3.16;69.66;101495.47;1842592;77;21007;-59
2022/11/27 01:23:21;;;;;;;4.85;1.77;;;;;;;3.14;69.70;101501.59;1846117;77;21058;-59
2022/11/27 01:25:48;;;;;;;5.53;2.27;;;;;;;3.07;69.74;101494.44;1851466;77;21051;-60
2022/11/27 01:28:15;;;;;;;5.28;1.85;;;;;;;3.06;69.80;101498.38;1798227;78;20995;-59
2022/11/27 01:30:42;;;;;;;4.60;1.70;;;;;;;3.10;69.59;101497.41;1781850;78;21547;-60
2022/11/27 01:33:09;;;;;;;6.55;2.72;;;;;;;3.09;69.68;101501.77;1782712;79;21054;-59
2022/11/27 01:35:36;;;;;;;4.62;1.80;;;;;;;3.04;69.75;101504.92;1776562;79;21101;-60
2022/11/27 01:38:03;;;;;;;4.00;1.70;;;;;;;3.01;69.82;101506.77;1780998;80;21123;-59
2022/11/27 01:40:29;;;;;;;5.22;1.60;;;;;;;2.97;70.04;101506.86;1775802;80;21084;-59
2022/11/27 01:42:56;;;;;;;4.67;2.02;;;;;;;3.01;70.08;101506.34;1765152;80;21148;-59
2022/11/27 01:45:22;;;;;;;7.00;2.62;;;;;;;3.07;70.03;101510.04;1767403;79;21054;-60
2022/11/27 01:47:53;;;;;;;5.72;2.30;;;;;;;3.12;70.00;101510.75;1775620;80;21078;-59
2022/11/27 01:50:23;;;;;;;5.53;2.17;;;;;;;3.12;70.12;101509.45;1774199;80;21069;-60
2022/11/27 01:52:57;;;;;;;6.25;2.40;;;;;;;3.10;70.22;101508.65;1772403;80;21520;-59
2022/11/27 01:55:36;;;;;;;4.83;1.70;;;;;;;3.04;70.34;101508.83;1783063;79;21098;-59
2022/11/27 01:58:17;;;;;;;4.40;1.50;;;;;;;3.03;70.42;101511.05;1781493;78;21057;-59
2022/11/27 02:00:44;;;;;;;4.55;1.57;;;;;;;3.06;70.31;101500.55;1802118;77;21007;-59
2022/11/27 02:03:10;;;;;;;6.22;2.50;;;;;;;3.03;70.63;101504.55;1768978;80;21096;-59
2022/11/27 02:05:37;;;;;;;5.03;2.42;;;;;;;2.99;70.90;101506.81;1767326;80;21113;-60
2022/11/27 02:08:07;;;;;;;4.70;1.92;;;;;;;2.97;71.07;101506.02;1773411;79;21241;-60
2022/11/27 02:11:11;;;;;;;4.75;1.65;;;;;;;2.96;71.15;101506.94;1782320;78;21554;-59
2022/11/27 02:13:52;;;;;;;4.80;2.37;;;;;;;3.00;70.99;101505.94;1774496;79;21129;-62
2022/11/27 02:16:47;;;;;;;4.03;1.30;;;;;;;2.98;71.18;101500.78;1765328;80;21086;-58
2022/11/27 02:19:45;;;;;;;4.72;1.82;;;;;;;2.96;71.34;101506.48;1781116;79;21507;-59
2022/11/27 02:22:41;;;;;;;4.22;1.45;;;;;;;2.93;71.48;101503.97;1775085;79;21241;-60
2022/11/27 02:25:37;;;;;;;4.03;1.55;;;;;;;2.97;71.43;101508.63;1776740;80;21086;-59
2022/11/27 02:28:53;;;;;;;5.87;2.47;;;;;;;3.01;71.10;101507.64;1772919;79;21023;-58
2022/11/27 02:32:41;;;;;;;5.08;2.05;;;;;;;2.90;71.90;101508.41;1791859;77;22663;-64
2022/11/27 02:35:28;;;;;;;4.30;1.62;;;;;;;2.96;71.47;101510.38;1762990;80;21001;-64
2022/11/27 02:38:05;;;;;;;4.40;1.62;;;;;;;2.94;71.36;101510.88;1764072;80;21475;-64
2022/11/27 02:40:54;;;;;;;4.70;1.60;;;;;;;2.98;71.24;101516.38;1766785;80;20927;-64
2022/11/27 02:43:36;;;;;;;5.00;1.65;;;;;;;2.99;71.37;101515.92;1764964;80;20987;-64
2022/11/27 02:46:04;;;;;;;8.78;2.25;;;;;;;2.94;71.47;101518.68;1770535;80;21011;-64
2022/11/27 02:48:35;;;;;;;6.70;1.98;;;;;;;2.91;71.70;101519.22;1771670;79;20966;-63
2022/11/27 02:51:02;;;;;;;5.80;2.10;;;;;;;2.88;71.91;101524.05;1765539;80;22161;-64
2022/11/27 02:53:33;;;;;;;5.47;1.92;;;;;;;2.90;72.01;101524.85;1767668;80;20959;-64
2022/11/27 02:55:59;;;;;;;5.35;2.50;;;;;;;2.95;71.74;101519.52;1770956;80;21030;-64
2022/11/27 02:58:26;;;;;;;4.50;1.70;;;;;;;3.00;71.66;101517.63;1712374;80;21097;-64
2022/11/27 03:00:53;;;;;;;5.58;1.40;;;;;;;3.00;71.70;101518.09;1773615;78;21111;-64
2022/11/27 03:03:25;;;;;;;5.97;2.00;;;;;;;3.00;71.69;101523.30;1770691;80;21249;-64
2022/11/27 03:05:54;;;;;;;4.17;1.50;;;;;;;2.96;71.70;101518.64;1780667;78;21116;-64
2022/11/27 03:08:32;;;;;;;4.78;1.57;;;;;;;2.94;71.56;101523.88;1775332;80;21534;-64
2022/11/27 03:11:06;;;;;;;4.85;1.47;;;;;;;3.00;71.49;101518.94;1747637;78;21084;-64
2022/11/27 03:13:43;;;;;;;6.65;2.22;;;;;;;3.07;71.46;101524.80;1781423;80;21081;-64
2022/11/27 03:16:40;;;;;;;4.40;1.52;;;;;;;3.07;71.29;101522.20;1768228;80;21113;-64
2022/11/27 03:19:22;;;;;;;5.72;1.90;;;;;;;3.03;71.20;101524.05;1748811;80;21359;-64
2022/11/27 03:21:55;;;;;;;5.12;2.47;;;;;;;2.95;71.28;101530.77;1766414;78;20995;-64
2022/11/27 03:24:22;;;;;;;4.28;1.67;;;;;;;2.96;71.19;101529.03;1764662;80;21662;-64
2022/11/27 03:26:49;;;;;;;4.65;1.90;;;;;;;3.02;71.23;101527.53;1769538;79;22193;-64
2022/11/27 03:29:26;;;;;;;4.67;1.65;;;;;;;3.03;71.19;101527.95;1769781;80;22045;-64
2022/11/27 03:31:54;;;;;;;4.78;1.77;;;;;;;3.02;71.15;101526.23;1760597;80;21301;-64
2022/11/27 03:34:20;;;;;;;4.80;1.87;;;;;;;2.97;71.03;101522.92;1754998;80;21027;-64
2022/11/27 03:36:47;;;;;;;5.80;1.57;;;;;;;2.92;71.18;101523.51;1752714;80;21090;-64
2022/11/27 03:39:13;;;;;;;5.10;1.82;;;;;;;2.97;71.12;101528.13;1761337;79;21035;-64
2022/11/27 03:41:46;;;;;;;5.83;2.58;;;;;;;3.04;70.92;101523.59;1755340;80;21248;-64
2022/11/27 03:44:33;;;;;;;5.10;2.02;;;;;;;3.05;70.80;101523.55;1751803;80;21544;-64
2022/11/27 03:47:22;;;;;;;6.12;1.85;;;;;;;3.01;70.70;101520.65;1757516;80;21039;-64
2022/11/27 03:50:28;;;;;;;5.40;2.00;;;;;;;2.97;70.81;101527.66;1750934;80;21090;-64
2022/11/27 03:53:21;;;;;;;5.53;2.02;;;;;;;2.84;71.23;101531.55;1755367;80;21007;-63
2022/11/27 03:56:20;;;;;;;7.70;2.45;;;;;;;2.85;71.22;101529.80;1756959;79;21126;-64
2022/11/27 03:59:03;;;;;;;6.03;2.55;;;;;;;2.89;71.15;101526.20;1753636;80;21027;-64
2022/11/27 04:01:31;;;;;;;7.30;2.75;;;;;;;2.85;71.34;101536.30;1758000;80;21050;-64
2022/11/27 04:03:57;;;;;;;6.15;2.20;;;;;;;2.79;71.43;101539.48;1760275;80;21591;-64
2022/11/27 04:06:24;;;;;;;6.08;2.72;;;;;;;2.74;71.58;101541.36;1758927;80;22345;-64
2022/11/27 04:08:51;;;;;;;6.92;2.90;;;;;;;2.73;71.68;101543.55;1750625;80;21156;-64
2022/11/27 04:11:18;;;;;;;5.45;2.50;;;;;;;2.79;71.57;101542.08;1758650;80;21064;-64
2022/11/27 04:13:44;;;;;;;5.22;1.95;;;;;;;2.84;71.51;101542.37;1755983;79;21102;-65
2022/11/27 04:16:12;;;;;;;5.12;1.98;;;;;;;2.84;71.65;101542.37;1758111;80;21109;-64
2022/11/27 04:18:41;;;;;;;4.83;2.05;;;;;;;2.85;71.69;101546.70;1756961;80;21495;-65
2022/11/27 04:21:07;;;;;;;4.83;2.05;;;;;;;2.82;71.68;101545.02;1755645;80;21655;-65
2022/11/27 04:23:34;;;;;;;5.75;2.55;;;;;;;2.82;71.70;101540.28;1753073;80;21559;-65
2022/11/27 04:26:00;;;;;;;5.37;2.02;;;;;;;2.87;71.51;101537.09;1760075;79;21393;-64
2022/11/27 04:28:27;;;;;;;5.92;1.98;;;;;;;2.92;71.47;101539.95;1753187;80;21084;-65
2022/11/27 04:30:53;;;;;;;6.05;2.17;;;;;;;2.94;71.46;101536.88;1760629;79;21063;-65
2022/11/27 04:33:20;;;;;;;5.08;2.05;;;;;;;2.95;71.62;101531.22;1762244;80;21194;-64
2022/11/27 04:35:47;;;;;;;6.05;2.22;;;;;;;2.97;71.58;101539.82;1756023;80;21035;-64
2022/11/27 04:38:13;;;;;;;5.25;2.00;;;;;;;2.92;71.48;101541.25;1761030;80;21047;-64
2022/11/27 04:40:40;;;;;;;5.15;1.75;;;;;;;2.89;71.54;101543.09;1761733;80;21575;-64
2022/11/27 04:43:06;;;;;;;6.33;2.10;;;;;;;2.86;71.45;101542.75;1751846;80;21598;-64
2022/11/27 04:45:33;;;;;;;5.40;1.65;;;;;;;2.95;71.08;101544.22;1754035;80;21539;-64
2022/11/27 04:48:00;;;;;;;4.50;1.52;;;;;;;3.00;71.02;101546.70;1759808;79;21516;-65
2022/11/27 04:50:26;;;;;;;5.55;1.90;;;;;;;3.03;71.12;101542.70;1762445;80;21102;-64
2022/11/27 04:52:52;;;;;;;4.22;1.75;;;;;;;3.05;71.30;101540.91;1758549;80;21042;-65
2022/11/27 04:55:19;;;;;;;6.22;2.08;;;;;;;3.06;71.21;101542.59;1760895;80;21006;-65
2022/11/27 04:57:45;;;;;;;5.03;1.82;;;;;;;3.04;71.13;101536.59;1759054;80;22186;-64
2022/11/27 05:00:13;;;;;;;5.15;2.02;;;;;;;3.02;71.16;101539.69;1756135;80;21460;-65
2022/11/27 05:02:40;;;;;;;4.70;1.82;;;;;;;3.00;71.11;101544.09;1759863;80;21511;-64
2022/11/27 05:05:08;;;;;;;6.37;1.95;;;;;;;3.03;70.95;101544.84;1758291;79;21546;-64
2022/11/27 05:07:34;;;;;;;6.60;1.90;;;;;;;3.07;71.02;101538.64;1762130;80;21508;-64
2022/11/27 05:10:01;;;;;;;6.55;2.95;;;;;;;3.13;71.10;101542.83;1753220;80;21149;-64
2022/11/27 05:12:28;;;;;;;6.53;2.45;;;;;;;3.16;71.25;101544.02;1757605;80;21086;-64
2022/11/27 05:14:55;;;;;;;7.50;4.47;;;;;;;3.18;71.22;101543.54;1758980;80;21138;-65
2022/11/27 05:17:21;;;;;;;5.90;2.25;;;;;;;3.15;71.08;101543.17;1763416;80;21156;-64
2022/11/27 05:19:48;;;;;;;5.53;2.20;;;;;;;3.14;71.06;101545.39;1756853;79;21050;-65
2022/11/27 05:22:14;;;;;;;6.78;2.67;;;;;;;3.11;71.10;101546.78;1758886;79;21259;-64
2022/11/27 05:24:42;;;;;;;6.62;2.77;;;;;;;3.06;71.06;101548.66;1755228;80;21078;-65
2022/11/27 05:27:09;;;;;;;6.62;2.15;;;;;;;3.05;70.97;101545.65;1756915;80;21587;-64
2022/11/27 05:29:36;;;;;;;7.53;4.85;;;;;;;3.13;70.84;101546.73;1760749;79;21094;-65
2022/11/27 05:32:02;;;;;;;7.12;2.40;;;;;;;3.18;70.79;101542.66;1758661;80;20977;-65
2022/11/27 05:34:29;;;;;;;6.37;3.02;;;;;;;3.23;70.75;101547.28;1763010;80;21098;-64
2022/11/27 05:36:55;;;;;;;8.33;3.77;;;;;;;3.26;70.82;101552.39;1765924;79;21085;-64
2022/11/27 05:39:22;;;;;;;7.60;3.15;;;;;;;3.23;70.74;101555.95;1761143;80;21045;-65
2022/11/27 05:41:50;;;;;;;7.22;3.83;;;;;;;3.23;70.76;101555.08;1762520;80;21587;-64
2022/11/27 05:44:16;;;;;;;8.30;3.33;;;;;;;3.18;70.83;101557.84;1766164;80;22333;-64
2022/11/27 05:46:43;;;;;;;7.20;3.12;;;;;;;3.15;70.86;101553.58;1726490;82;21154;-64
2022/11/27 05:49:14;;;;;;;6.90;2.98;;;;;;;3.11;70.84;101558.48;1768259;80;21038;-64
2022/11/27 05:51:41;;;;;;;7.42;3.15;;;;;;;3.17;70.72;101554.83;1768238;80;21755;-64
2022/11/27 05:55:07;;;;;;;8.75;3.02;;;;;;;3.09;71.10;101558.98;1850087;75;22041;-86
2022/11/27 05:57:33;;;;;;;8.08;3.25;;;;;;;3.27;70.40;101558.01;1815011;77;21469;-86
2022/11/27 06:00:00;;;;;;;6.37;2.65;;;;;;;3.25;70.36;101563.71;1826233;77;21180;-86
2022/11/27 06:02:27;;;;;;;7.37;2.98;;;;;;;3.19;70.34;101562.59;1804166;77;21427;-86
2022/11/27 06:04:56;;;;;;;6.80;3.00;;;;;;;3.14;70.47;101568.80;1822034;77;20923;-85
2022/11/27 06:07:23;;;;;;;6.30;3.12;;;;;;;3.14;70.58;101568.80;1822001;77;21007;-85
2022/11/27 06:09:50;;;;;;;8.63;4.28;;;;;;;3.08;70.59;101559.87;1822961;77;21434;-84
2022/11/27 06:12:16;;;;;;;6.97;3.17;;;;;;;3.13;70.51;101560.58;1819422;77;21187;-84
2022/11/27 06:14:43;;;;;;;7.90;2.85;;;;;;;3.12;70.42;101565.82;1822507;77;20914;-84
2022/11/27 06:17:09;;;;;;;7.15;2.77;;;;;;;3.18;70.52;101559.57;1821038;77;21361;-83
2022/11/27 06:19:36;;;;;;;9.30;2.75;;;;;;;3.23;70.60;101566.78;1823442;77;20962;-83
2022/11/27 06:22:03;;;;;;;9.70;5.37;;;;;;;3.26;70.67;101571.90;1820171;78;21017;-85
2022/11/27 06:24:29;;;;;;;11.65;2.85;;;;;;;3.27;70.70;101569.71;1792669;78;21695;-83
2022/11/27 06:26:56;;;;;;;6.25;2.90;;;;;;;3.34;70.45;101564.26;1815049;77;21462;-84
2022/11/27 06:29:23;;;;;;;7.17;3.02;;;;;;;3.36;70.25;101574.62;1832726;77;21022;-82
2022/11/27 06:31:49;;;;;;;8.88;4.00;;;;;;;3.36;70.03;101572.02;1824505;78;20971;-85
2022/11/27 06:34:16;;;;;;;12.15;7.62;;;;;;;3.31;70.03;101571.31;1821467;77;21077;-84
2022/11/27 06:36:46;;;;;;;8.28;3.70;;;;;;;3.26;70.09;101573.20;1821724;78;21228;-83
2022/11/27 06:39:11;;;;;;;10.70;4.30;;;;;;;3.30;70.07;101575.67;1817811;78;20907;-84
2022/11/27 06:41:37;;;;;;;11.57;5.58;;;;;;;3.32;69.95;101579.53;1814027;78;20987;-83
2022/11/27 06:44:04;;;;;;;11.35;5.87;;;;;;;3.30;70.16;101580.03;1827276;77;21520;-83
2022/11/27 06:46:30;;;;;;;14.28;10.15;;;;;;;3.26;70.20;101577.98;1821716;77;21614;-84
2022/11/27 06:48:57;;;;;;;8.98;5.00;;;;;;;3.23;70.35;101575.46;1821399;77;21891;-85
2022/11/27 06:51:27;;;;;;;9.18;4.30;;;;;;;3.24;70.44;101575.00;1818523;77;20943;-83
2022/11/27 06:53:53;;;;;;;10.45;4.60;;;;;;;3.23;70.35;101574.59;1819224;77;21568;-83
2022/11/27 06:56:23;;;;;;;8.88;4.35;;;;;;;3.21;70.43;101573.79;1818058;77;20863;-83
2022/11/27 06:58:53;;;;;;;8.48;3.22;;;;;;;3.23;70.20;101575.89;1821009;77;20994;-84
2022/11/27 07:01:19;;;;;;;7.10;2.85;;;;;;;3.31;70.07;101577.81;1815549;77;21942;-84
2022/11/27 07:03:46;;;;;;;6.25;2.72;;;;;;;3.35;69.96;101570.33;1815814;78;21556;-83
2022/11/27 07:06:14;;;;;;;10.32;6.08;;;;;;;3.38;69.93;101572.84;1815920;78;21709;-85
2022/11/27 07:08:42;;;;;;;6.75;2.37;;;;;;;3.38;70.13;101581.08;1828605;77;21113;-85
2022/11/27 07:11:17;;;;;;;5.78;2.75;;;;;;;3.32;70.03;101579.06;1812298;77;21045;-83
2022/11/27 07:13:45;;;;;;;6.30;2.47;;;;;;;3.29;70.20;101584.81;1811024;77;21743;-84
2022/11/27 07:16:12;;;;;;;7.42;2.87;;;;;;;3.27;70.39;101576.22;1800984;78;21536;-84
2022/11/27 07:18:42;;;;;;;5.80;2.25;;;;;;;3.26;70.24;101572.77;1819023;77;21003;-84
2022/11/27 07:21:08;;;;;;;6.35;2.58;;;;;;;3.22;70.18;101576.80;1820770;77;21472;-82
2022/11/27 07:23:37;;;;;;;5.47;2.17;;;;;;;3.26;70.05;101579.70;1819772;77;20944;-84
2022/11/27 07:26:09;;;;;;;7.40;3.17;;;;;;;3.28;69.87;101582.67;1818380;77;21195;-85
2022/11/27 07:28:38;;;;;;;5.87;2.08;;;;;;;3.26;69.83;101582.30;1815575;77;21014;-83
2022/11/27 07:31:05;;;;;;;7.10;3.58;;;;;;;3.30;70.22;101574.37;1820984;77;21001;-85
2022/11/27 07:33:32;;;;;;;8.63;5.45;;;;;;;3.31;70.16;101576.52;1821391;77;21014;-84
2022/11/27 07:36:13;;;;;;;7.45;2.47;;;;;;;3.29;70.20;101579.62;1815915;77;21027;-85
2022/11/27 07:38:39;;;;;;;7.33;2.95;;;;;;;3.27;70.30;101587.92;1804460;77;21161;-84
2022/11/27 07:41:06;;;;;;;8.70;5.58;;;;;;;3.20;70.20;101575.55;1816915;77;21026;-84
2022/11/27 07:43:32;;;;;;;6.05;2.27;;;;;;;3.16;70.46;101577.82;1810447;77;21602;-86
2022/11/27 07:46:13;;;;;;;6.15;2.65;;;;;;;3.21;70.44;101577.69;1811091;77;21014;-84
2022/11/27 07:48:39;;;;;;;5.53;2.12;;;;;;;3.28;70.25;101578.77;1815367;77;20983;-82
2022/11/27 07:51:08;;;;;;;6.47;2.83;;;;;;;3.37;70.21;101575.03;1812902;77;21936;-86
2022/11/27 07:53:37;;;;;;;9.05;3.85;;;;;;;3.40;70.21;101572.34;1829631;77;20998;-86
2022/11/27 07:56:05;;;;;;;7.12;2.98;;;;;;;3.42;70.15;101572.30;1819904;77;21425;-87
2022/11/27 07:58:31;;;;;;;8.33;3.08;;;;;;;3.40;70.09;101577.55;1820721;77;21018;-85
2022/11/27 08:00:58;;;;;;;5.53;2.47;;;;;;;3.35;70.02;101575.08;1826055;77;21104;-89
2022/11/27 08:03:24;;;;;;;5.90;2.62;;;;;;;3.31;70.04;101577.81;1823293;77;21973;-88
2022/11/27 08:05:51;;;;;;;6.45;3.12;;;;;;;3.28;70.22;101581.83;1827782;77;20975;-89
2022/11/27 08:08:18;;;;;;;7.53;3.27;;;;;;;3.28;70.27;101578.77;1820907;77;20994;-88
2022/11/27 08:10:46;;;;;;;6.17;2.77;;;;;;;3.35;69.98;101585.48;1825067;77;21584;-87
2022/11/27 08:13:15;;;;;;;7.85;2.50;;;;;;;3.41;69.93;101580.53;1822638;77;21081;-86
2022/11/27 08:15:41;;;;;;;6.15;2.85;;;;;;;3.48;69.77;101580.77;1814660;77;21147;-86
2022/11/27 08:18:09;;;;;;;9.15;5.22;;;;;;;3.47;69.93;101581.66;1828550;77;20926;-87
2022/11/27 08:20:36;;;;;;;6.97;2.17;;;;;;;3.45;69.91;101580.02;1817024;77;21511;-86
2022/11/27 08:23:02;;;;;;;6.55;3.12;;;;;;;3.45;69.95;101580.02;1817639;77;21010;-84
2022/11/27 08:25:32;;;;;;;6.78;2.90;;;;;;;3.43;69.92;101581.36;1822581;76;20985;-87
2022/11/27 08:28:00;;;;;;;6.85;3.12;;;;;;;3.46;69.78;101581.70;1827759;77;21072;-87
2022/11/27 08:30:28;;;;;;;5.53;2.58;;;;;;;3.45;69.81;101583.45;1820864;77;21080;-85
2022/11/27 08:32:54;;;;;;;8.40;3.25;;;;;;;3.51;69.56;101584.58;1826081;77;20990;-84
2022/11/27 08:35:24;;;;;;;8.45;5.30;;;;;;;3.54;69.32;101590.12;1818731;77;21038;-84
2022/11/27 08:37:59;;;;;;;5.87;2.92;;;;;;;3.51;69.40;101583.70;1829570;77;21037;-86
2022/11/27 08:40:27;;;;;;;7.10;2.47;;;;;;;3.50;69.38;101589.37;1820987;77;21168;-85
2022/11/27 08:42:54;;;;;;;6.78;3.47;;;;;;;3.41;69.59;101585.73;1827800;77;20990;-89
2022/11/27 08:45:20;;;;;;;7.25;3.05;;;;;;;3.28;69.73;101589.64;1822158;77;21044;-88
2022/11/27 08:47:47;;;;;;;6.30;3.15;;;;;;;3.19;70.08;101588.59;1834777;77;21062;-89
2022/11/27 08:50:14;;;;;;;6.55;3.08;;;;;;;3.19;70.15;101586.00;1830292;77;21005;-87
2022/11/27 08:52:46;;;;;;;6.85;3.00;;;;;;;3.26;70.06;101590.11;1827625;77;21400;-89
2022/11/27 08:55:19;;;;;;;8.00;3.47;;;;;;;3.33;70.04;101585.14;1827088;77;21002;-90
2022/11/27 08:57:46;;;;;;;13.18;7.87;;;;;;;3.35;69.97;101585.48;1832529;77;21009;-86
2022/11/27 09:00:19;;;;;;;10.28;4.47;;;;;;;3.32;70.13;101579.06;1827936;77;21092;-88
2022/11/27 09:02:45;;;;;;;7.78;3.55;;;;;;;3.33;70.25;101583.39;1828827;77;21017;-91
2022/11/27 09:05:12;;;;;;;9.18;4.28;;;;;;;3.33;70.04;101584.69;1830355;77;21073;-85
2022/11/27 09:07:40;;;;;;;9.35;4.20;;;;;;;3.38;69.87;101582.37;1827199;77;20966;-84
2022/11/27 09:10:08;;;;;;;8.43;3.40;;;;;;;3.35;69.78;101583.34;1832283;76;21103;-85
2022/11/27 09:12:34;;;;;;;9.08;3.40;;;;;;;3.38;69.60;101583.25;1822449;77;20942;-85
2022/11/27 09:15:00;;;;;;;8.30;4.28;;;;;;;3.43;69.59;101578.76;1832299;76;21496;-83
2022/11/27 09:17:27;;;;;;;8.75;4.45;;;;;;;3.45;69.67;101578.25;1826975;77;21898;-89
2022/11/27 09:19:53;;;;;;;8.50;4.50;;;;;;;3.46;69.72;101569.56;1831064;77;21002;-89
2022/11/27 09:22:19;;;;;;;6.08;3.02;;;;;;;3.44;69.73;101575.23;1837706;77;21033;-89
2022/11/27 09:24:46;;;;;;;9.08;6.03;;;;;;;3.40;69.71;101577.55;1832031;77;21068;-89
2022/11/27 09:27:13;;;;;;;6.47;4.08;;;;;;;3.31;69.68;101579.11;1810038;77;21006;-89
2022/11/27 09:29:39;;;;;;;10.32;4.50;;;;;;;3.27;69.80;101576.22;1835889;77;21167;-87
2022/11/27 09:32:05;;;;;;;9.18;4.00;;;;;;;3.30;69.73;101569.63;1829924;77;21076;-87
2022/11/27 09:34:32;;;;;;;9.58;3.65;;;;;;;3.34;69.81;101571.22;1833027;77;20998;-85
2022/11/27 09:36:58;;;;;;;6.60;3.50;;;;;;;3.34;69.90;101572.52;1830284;77;20970;-87
2022/11/27 09:39:29;;;;;;;8.83;4.35;;;;;;;3.31;69.96;101572.61;1826911;77;21024;-86
2022/11/27 09:41:56;;;;;;;6.65;3.50;;;;;;;3.30;70.02;101576.13;1829391;77;21171;-84
2022/11/27 09:44:39;;;;;;;10.28;6.75;;;;;;;3.26;70.12;101575.80;1829344;77;21064;-87
2022/11/27 09:47:40;;;;;;;8.08;3.47;;;;;;;3.24;70.23;101576.30;1838811;77;21024;-89
2022/11/27 09:50:23;;;;;;;9.90;3.70;;;;;;;3.28;70.11;101574.03;1839442;77;21080;-87
2022/11/27 09:53:18;;;;;;;6.65;2.87;;;;;;;3.34;69.95;101577.72;1832809;77;20966;-87
2022/11/27 09:55:48;;;;;;;7.50;3.60;;;;;;;3.36;69.89;101574.62;1832865;77;22007;-87
2022/11/27 10:01:16;;;;;;;7.58;3.45;;;;;;;3.28;70.43;101572.73;1792912;78;22697;-68
2022/11/27 10:03:44;;;;;;;7.90;3.92;;;;;;;3.33;70.00;101575.58;1783143;78;20936;-66
2022/11/27 10:06:39;;;;;;;8.70;3.77;;;;;;;3.29;70.07;101573.11;1773004;78;21122;-66
2022/11/27 10:11:17;;;;;;;9.43;3.77;;;;;;;3.21;70.32;101562.95;1788758;78;22704;-67
2022/11/27 10:13:52;;;;;;;7.55;3.83;;;;;;;3.31;70.05;101566.98;1774680;80;20956;-67
2022/11/27 10:16:45;;;;;;;10.82;3.85;;;;;;;3.31;70.21;101567.41;1759881;80;21705;-68
2022/11/27 10:20:12;;;;;;;8.25;3.45;;;;;;;3.23;70.61;101562.88;1776809;78;22004;-67
2022/11/27 10:22:44;;;;;;;10.58;4.05;;;;;;;3.22;70.21;101566.41;1745252;80;20939;-66
2022/11/27 10:25:42;;;;;;;9.03;3.77;;;;;;;3.22;70.21;101566.41;1745584;80;21224;-66
2022/11/27 10:28:44;;;;;;;7.15;3.17;;;;;;;3.29;70.08;101564.01;1751054;80;21048;-68
2022/11/27 10:31:23;;;;;;;8.05;3.87;;;;;;;3.24;70.10;101567.20;1749629;80;20989;-67
2022/11/27 10:33:55;;;;;;;8.13;3.80;;;;;;;3.25;70.36;101560.66;1743770;80;21062;-68
2022/11/27 10:36:29;;;;;;;9.38;3.55;;;;;;;3.24;70.51;101560.70;1741225;80;21046;-68
2022/11/27 10:38:57;;;;;;;7.12;3.77;;;;;;;3.23;70.52;101554.66;1755662;80;20951;-68
2022/11/27 10:41:32;;;;;;;12.73;8.10;;;;;;;3.22;70.49;101556.00;1755969;80;20966;-68
2022/11/27 10:44:03;;;;;;;7.50;3.57;;;;;;;3.16;70.49;101553.11;1753330;80;21027;-68
2022/11/27 10:46:32;;;;;;;9.93;3.87;;;;;;;3.18;70.52;101545.27;1753945;80;21530;-67
2022/11/27 10:48:58;;;;;;;8.60;3.67;;;;;;;3.25;70.40;101546.34;1747481;80;20999;-68
2022/11/27 10:51:32;;;;;;;8.18;4.12;;;;;;;3.26;70.24;101538.95;1745441;80;21266;-68
2022/11/27 10:54:00;;;;;;;10.68;4.05;;;;;;;3.23;70.36;101542.95;1746516;80;21556;-68
2022/11/27 10:56:56;;;;;;;8.18;5.05;;;;;;;3.21;70.58;101541.28;1711683;83;21093;-68
2022/11/27 10:59:32;;;;;;;9.15;4.10;;;;;;;3.19;70.72;101544.38;1726530;82;21054;-67
2022/11/27 11:01:59;;;;;;;9.33;3.75;;;;;;;3.15;70.64;101543.17;1724232;81;21057;-67
2022/11/27 11:04:28;;;;;;;7.00;3.00;;;;;;;3.18;70.74;101543.97;1738082;81;21218;-65
2022/11/27 11:06:55;;;;;;;10.68;4.25;;;;;;;3.26;70.63;101544.59;1716861;81;21034;-65
2022/11/27 11:09:30;;;;;;;6.83;3.55;;;;;;;3.35;70.49;101543.02;1710970;83;21033;-66
2022/11/27 11:12:19;;;;;;;8.45;3.58;;;;;;;3.42;70.33;101539.31;1714582;83;21049;-66
2022/11/27 11:14:57;;;;;;;8.33;3.42;;;;;;;3.41;70.28;101538.05;1715562;82;21035;-66
2022/11/27 11:17:26;;;;;;;7.12;4.00;;;;;;;3.38;70.14;101532.95;1713618;82;21248;-67
2022/11/27 11:19:53;;;;;;;9.05;4.00;;;;;;;3.34;70.17;101542.14;1703511;83;21094;-67
2022/11/27 11:22:19;;;;;;;11.85;4.37;;;;;;;3.28;70.14;101536.31;1701851;82;21019;-67
2022/11/27 11:24:48;;;;;;;7.42;3.70;;;;;;;3.22;70.31;101534.73;1704867;83;21143;-67
2022/11/27 11:27:21;;;;;;;8.15;3.67;;;;;;;3.24;70.32;101530.78;1697050;82;22341;-66
2022/11/27 11:30:00;;;;;;;8.98;3.22;;;;;;;3.30;70.15;101532.74;1703506;82;21334;-67
2022/11/27 11:32:34;;;;;;;10.03;3.33;;;;;;;3.38;70.15;101527.31;1701015;82;21181;-66
2022/11/27 11:35:28;;;;;;;8.43;3.85;;;;;;;3.40;70.12;101530.71;1699050;83;21564;-67
2022/11/27 11:37:54;;;;;;;7.33;3.22;;;;;;;3.40;70.13;101529.87;1701553;83;22001;-67
2022/11/27 11:40:30;;;;;;;9.98;3.85;;;;;;;3.38;70.21;101529.91;1699892;82;21624;-68
2022/11/27 11:43:01;;;;;;;7.80;3.60;;;;;;;3.32;70.26;101530.94;1698533;83;21178;-67
2022/11/27 11:45:32;;;;;;;7.35;3.17;;;;;;;3.26;70.20;101536.78;1699553;82;21578;-68
2022/11/27 11:48:20;;;;;;;8.05;3.60;;;;;;;3.13;70.14;101541.07;1695969;82;21095;-67
2022/11/27 11:50:54;;;;;;;9.45;3.47;;;;;;;3.04;70.41;101539.19;1697905;83;21106;-67
2022/11/27 11:53:38;;;;;;;8.03;4.05;;;;;;;3.05;70.62;101537.00;1692511;83;21454;-68
2022/11/27 11:56:30;;;;;;;7.58;3.52;;;;;;;3.20;70.80;101538.30;1702880;82;21122;-68
2022/11/27 11:59:33;;;;;;;8.93;3.67;;;;;;;3.38;70.84;101535.55;1686878;83;21071;-68
2022/11/27 12:02:37;;;;;;;8.08;3.55;;;;;;;3.54;70.80;101531.10;1694170;82;21166;-68
2022/11/27 12:05:43;;;;;;;8.78;3.80;;;;;;;3.67;70.70;101532.02;1703684;83;21485;-68